Time;durP1;ratioP1;P1;durP2;ratioP2;P2;SDS_P1;SDS_P2;PMS_P1;PMS_P2;Temp;Humidity;BMP_temperature;BMP_pressure;BME280_temperature;BME280_humidity;BME280_pressure;Samples;Min_cycle;Max_cycle;Signal;HPM_P1;HPM_P2
2022/10/08 10:30:13;;;;;;;10.52;1.25;;;;;;;;;;5082235;27;20419;-80
2022/10/08 10:32:41;;;;;;;9.55;1.13;;;;;;;;;;5068515;28;20026;-76
2022/10/08 10:35:12;;;;;;;10.25;1.33;;;;;;;;;;5068351;28;20498;-81
2022/10/08 10:37:45;;;;;;;10.83;1.30;;;;;;;;;;5068368;28;20067;-77
2022/10/08 10:40:17;;;;;;;9.60;1.23;;;;;;;;;;5049983;28;20260;-79
2022/10/08 10:42:46;;;;;;;15.95;1.95;;;;;;;;;;5087954;28;20055;-78
2022/10/08 10:45:39;;;;;;;9.38;1.98;;;;;;;;;;5068728;28;20123;-74
2022/10/08 10:48:07;;;;;;;10.10;1.17;;;;;;;;;;5067934;28;20052;-74
2022/10/08 10:50:38;;;;;;;11.05;1.50;;;;;;;;;;5050124;28;20402;-74
2022/10/08 10:53:04;;;;;;;11.10;1.60;;;;;;;;;;5052278;28;20021;-73
2022/10/08 10:55:30;;;;;;;12.02;1.27;;;;;;;;;;5075547;28;20059;-73
2022/10/08 10:58:09;;;;;;;8.95;1.20;;;;;;;;;;5075650;28;20090;-73
2022/10/08 11:00:42;;;;;;;7.70;1.00;;;;;;;;;;5064815;28;20562;-73
2022/10/08 11:03:14;;;;;;;7.35;0.90;;;;;;;;;;5065936;28;20029;-73
2022/10/08 11:05:43;;;;;;;11.68;1.15;;;;;;;;;;5071350;28;20039;-75
2022/10/08 11:08:12;;;;;;;6.68;0.80;;;;;;;;;;5077951;28;20438;-75
2022/10/08 11:10:41;;;;;;;15.23;1.23;;;;;;;;;;5066994;28;20036;-74
2022/10/08 11:13:25;;;;;;;4.47;0.93;;;;;;;;;;5067849;28;20029;-74
2022/10/08 11:15:59;;;;;;;7.88;1.45;;;;;;;;;;5053254;28;20029;-74
2022/10/08 11:18:25;;;;;;;12.07;2.30;;;;;;;;;;5047102;28;20032;-74
2022/10/08 11:21:14;;;;;;;12.75;1.63;;;;;;;;;;5046884;28;20104;-77
2022/10/08 11:23:52;;;;;;;6.55;1.02;;;;;;;;;;5047414;28;20071;-77
2022/10/08 11:26:22;;;;;;;13.55;1.55;;;;;;;;;;5047826;28;20509;-77
2022/10/08 11:28:54;;;;;;;10.95;1.30;;;;;;;;;;5047580;28;20057;-77
2022/10/08 11:31:20;;;;;;;8.75;1.08;;;;;;;;;;5047611;28;20029;-77
2022/10/08 11:33:47;;;;;;;8.90;0.90;;;;;;;;;;5054530;28;20083;-77
2022/10/08 11:36:22;;;;;;;19.55;7.57;;;;;;;;;;5055240;28;20025;-77
2022/10/08 11:38:48;;;;;;;15.63;3.50;;;;;;;;;;5047496;28;20033;-77
2022/10/08 11:41:28;;;;;;;6.68;1.23;;;;;;;;;;5054654;28;20028;-77
2022/10/08 11:43:55;;;;;;;8.25;0.82;;;;;;;;;;5054245;28;20442;-77
2022/10/08 11:46:21;;;;;;;11.82;1.17;;;;;;;;;;5054229;28;20032;-77
2022/10/08 11:48:48;;;;;;;6.05;0.80;;;;;;;;;;5053909;28;20150;-77
2022/10/08 11:51:20;;;;;;;8.30;1.00;;;;;;;;;;5051812;28;20029;-78
2022/10/08 11:54:18;;;;;;;9.52;1.30;;;;;;;;;;5033857;28;20017;-74
2022/10/08 11:56:46;;;;;;;8.18;1.25;;;;;;;;;;5032612;28;20037;-74
2022/10/08 11:59:21;;;;;;;10.00;0.90;;;;;;;;;;5033472;28;20115;-74
2022/10/08 12:01:51;;;;;;;5.82;1.25;;;;;;;;;;5033461;28;20408;-74
2022/10/08 12:04:19;;;;;;;9.50;0.95;;;;;;;;;;5051223;28;20554;-74
2022/10/08 12:06:47;;;;;;;13.40;1.40;;;;;;;;;;5033438;28;20397;-74
2022/10/08 12:09:23;;;;;;;9.68;1.15;;;;;;;;;;5065211;28;20356;-75
2022/10/08 12:11:53;;;;;;;12.90;1.23;;;;;;;;;;5033474;28;20500;-75
2022/10/08 12:14:19;;;;;;;12.85;1.27;;;;;;;;;;5033108;28;20124;-75
2022/10/08 12:16:45;;;;;;;7.68;1.00;;;;;;;;;;5033382;28;20105;-76
2022/10/08 12:19:31;;;;;;;6.00;0.95;;;;;;;;;;5035776;28;20100;-77
2022/10/08 12:21:58;;;;;;;5.38;0.88;;;;;;;;;;5055111;28;20047;-77
2022/10/08 12:24:39;;;;;;;8.50;0.88;;;;;;;;;;5045415;28;20475;-74
2022/10/08 12:27:17;;;;;;;13.13;1.27;;;;;;;;;;5049031;28;20028;-76
2022/10/08 12:29:57;;;;;;;8.75;1.10;;;;;;;;;;5058328;28;20060;-74
2022/10/08 12:32:30;;;;;;;5.88;1.23;;;;;;;;;;5058113;28;20016;-74
2022/10/08 12:34:57;;;;;;;7.70;1.13;;;;;;;;;;5055026;28;20106;-74
2022/10/08 12:37:46;;;;;;;3.60;0.90;;;;;;;;;;5062187;28;20852;-74
2022/10/08 12:40:19;;;;;;;8.73;0.82;;;;;;;;;;5053033;28;20308;-75
2022/10/08 12:42:46;;;;;;;10.13;0.93;;;;;;;;;;5062881;28;20027;-74
2022/10/08 12:45:14;;;;;;;6.07;1.02;;;;;;;;;;5065011;28;20361;-74
2022/10/08 12:47:47;;;;;;;9.05;1.05;;;;;;;;;;5051535;28;20025;-77
2022/10/08 12:50:32;;;;;;;7.85;1.02;;;;;;;;;;5045338;28;20063;-74
2022/10/08 12:53:02;;;;;;;9.75;1.02;;;;;;;;;;5045629;28;20101;-74
2022/10/08 12:55:29;;;;;;;9.77;1.25;;;;;;;;;;5046927;28;20068;-74
2022/10/08 12:57:55;;;;;;;6.90;0.95;;;;;;;;;;5071436;28;20052;-74
2022/10/08 13:00:23;;;;;;;8.85;0.95;;;;;;;;;;5071214;28;20399;-74
2022/10/08 13:03:05;;;;;;;10.85;1.23;;;;;;;;;;5071407;28;20108;-74
2022/10/08 13:05:31;;;;;;;7.07;0.98;;;;;;;;;;5072278;28;20092;-74
2022/10/08 13:07:57;;;;;;;8.98;2.05;;;;;;;;;;5072282;28;20028;-78
2022/10/08 13:10:27;;;;;;;6.50;1.60;;;;;;;;;;5072560;28;20012;-78
2022/10/08 13:13:03;;;;;;;6.72;1.15;;;;;;;;;;5072609;28;20400;-77
2022/10/08 13:15:31;;;;;;;8.40;1.42;;;;;;;;;;5072567;28;20093;-77
2022/10/08 13:17:57;;;;;;;8.10;1.05;;;;;;;;;;5070917;28;20359;-77
2022/10/08 13:20:24;;;;;;;7.90;1.05;;;;;;;;;;5072459;28;20020;-77
2022/10/08 13:22:50;;;;;;;8.98;1.20;;;;;;;;;;5072368;28;20024;-77
2022/10/08 13:25:36;;;;;;;10.05;1.05;;;;;;;;;;5071890;28;20051;-74
2022/10/08 13:28:16;;;;;;;6.55;0.95;;;;;;;;;;5057531;28;20049;-75
2022/10/08 13:30:45;;;;;;;6.30;1.05;;;;;;;;;;5052108;28;20025;-76
2022/10/08 13:33:17;;;;;;;6.72;0.77;;;;;;;;;;5047527;28;20021;-77
2022/10/08 13:35:44;;;;;;;6.15;1.23;;;;;;;;;;5032230;28;20064;-77
2022/10/08 13:38:17;;;;;;;5.35;1.13;;;;;;;;;;5032199;28;20052;-74
2022/10/08 13:40:48;;;;;;;7.57;1.08;;;;;;;;;;5046426;28;20025;-75
2022/10/08 13:43:14;;;;;;;8.68;1.10;;;;;;;;;;5051923;28;20028;-75
2022/10/08 13:45:40;;;;;;;7.50;1.40;;;;;;;;;;5051779;28;20028;-75
2022/10/08 13:48:11;;;;;;;6.72;1.08;;;;;;;;;;5052876;28;20036;-76
2022/10/08 13:50:41;;;;;;;7.57;1.50;;;;;;;;;;5048052;28;20024;-76
2022/10/08 13:53:09;;;;;;;3.55;0.70;;;;;;;;;;5042346;28;20021;-77
2022/10/08 13:55:36;;;;;;;10.32;1.63;;;;;;;;;;5038241;28;20858;-76
2022/10/08 13:58:04;;;;;;;5.32;1.00;;;;;;;;;;5055946;28;20068;-76
2022/10/08 14:00:31;;;;;;;7.45;0.90;;;;;;;;;;5053722;28;20043;-77
2022/10/08 14:02:57;;;;;;;5.32;1.00;;;;;;;;;;5048264;28;20037;-76
2022/10/08 14:05:24;;;;;;;7.30;0.88;;;;;;;;;;5049254;28;20021;-76
2022/10/08 14:07:52;;;;;;;4.78;0.82;;;;;;;;;;5045059;28;20052;-76
2022/10/08 14:10:18;;;;;;;4.68;0.70;;;;;;;;;;5023870;28;20056;-77
2022/10/08 14:12:44;;;;;;;8.20;0.90;;;;;;;;;;5031950;28;20029;-77
2022/10/08 14:15:12;;;;;;;7.05;1.00;;;;;;;;;;5027267;28;20010;-77
2022/10/08 14:17:38;;;;;;;3.90;1.00;;;;;;;;;;4972027;28;20021;-77
2022/10/08 14:20:05;;;;;;;4.63;1.05;;;;;;;;;;5012075;28;20076;-77
2022/10/08 14:22:37;;;;;;;3.55;0.73;;;;;;;;;;5012221;28;20022;-77
2022/10/08 14:25:03;;;;;;;;;;;;;;;;;;5012701;28;20026;-77
2022/10/08 14:27:29;;;;;;;6.78;1.10;;;;;;;;;;5011958;28;19952;-78
2022/10/08 14:29:55;;;;;;;5.05;0.98;;;;;;;;;;5011387;28;20042;-77
2022/10/08 14:32:21;;;;;;;6.25;0.90;;;;;;;;;;5012382;28;20044;-77
2022/10/08 14:34:47;;;;;;;2.95;0.80;;;;;;;;;;5006992;28;20787;-77
2022/10/08 14:37:13;;;;;;;6.53;1.40;;;;;;;;;;5012274;28;20069;-81
2022/10/08 14:39:39;;;;;;;5.97;1.17;;;;;;;;;;5012227;28;20030;-78
2022/10/08 14:42:05;;;;;;;4.68;0.93;;;;;;;;;;5004447;28;20056;-78
2022/10/08 14:44:31;;;;;;;4.60;0.70;;;;;;;;;;5010733;28;20360;-76
2022/10/08 14:46:57;;;;;;;4.90;1.15;;;;;;;;;;5011480;28;20045;-76
2022/10/08 14:49:23;;;;;;;8.75;0.82;;;;;;;;;;5002485;28;20022;-76
2022/10/08 14:51:49;;;;;;;5.95;1.08;;;;;;;;;;5009191;28;20396;-76
2022/10/08 14:54:16;;;;;;;4.30;0.90;;;;;;;;;;5010320;28;20019;-76
2022/10/08 14:56:43;;;;;;;5.07;0.77;;;;;;;;;;5005443;28;20025;-76
2022/10/08 14:59:09;;;;;;;5.93;0.93;;;;;;;;;;5007418;28;20034;-76
2022/10/08 15:01:35;;;;;;;6.82;1.20;;;;;;;;;;5005055;28;20109;-76
2022/10/08 15:04:02;;;;;;;6.00;1.00;;;;;;;;;;5012156;28;20034;-77
2022/10/08 15:06:28;;;;;;;5.47;0.98;;;;;;;;;;5009007;28;20029;-77
2022/10/08 15:08:54;;;;;;;5.55;0.95;;;;;;;;;;5005176;28;20034;-77
2022/10/08 15:11:20;;;;;;;8.05;1.15;;;;;;;;;;5003436;28;20062;-77
2022/10/08 15:13:46;;;;;;;9.45;1.33;;;;;;;;;;5011464;28;20029;-77
2022/10/08 15:16:13;;;;;;;6.00;1.20;;;;;;;;;;5013469;28;20028;-76
2022/10/08 15:18:39;;;;;;;6.63;1.23;;;;;;;;;;5015563;28;20069;-76
2022/10/08 15:21:06;;;;;;;6.50;1.40;;;;;;;;;;5002121;28;20037;-76
2022/10/08 15:23:32;;;;;;;7.95;1.20;;;;;;;;;;5013577;28;20057;-75
2022/10/08 15:26:02;;;;;;;9.30;0.98;;;;;;;;;;5014703;28;20030;-75
2022/10/08 15:28:29;;;;;;;8.30;1.40;;;;;;;;;;5012778;28;20053;-76
2022/10/08 15:31:01;;;;;;;7.07;1.55;;;;;;;;;;5013722;28;20265;-75
2022/10/08 15:33:27;;;;;;;4.55;1.17;;;;;;;;;;5008719;28;20018;-76
2022/10/08 15:35:53;;;;;;;7.90;1.40;;;;;;;;;;5012719;28;20108;-75
2022/10/08 15:38:19;;;;;;;7.38;1.20;;;;;;;;;;5013990;28;20068;-75
2022/10/08 15:40:45;;;;;;;5.95;1.10;;;;;;;;;;5009758;28;20033;-75
2022/10/08 15:43:11;;;;;;;7.57;1.13;;;;;;;;;;5007995;28;20031;-78
2022/10/08 15:45:43;;;;;;;7.20;1.00;;;;;;;;;;5008071;28;20030;-77
2022/10/08 15:48:11;;;;;;;6.07;0.80;;;;;;;;;;5005809;28;20452;-77
2022/10/08 15:50:40;;;;;;;9.48;1.40;;;;;;;;;;5008229;28;20029;-77
2022/10/08 15:53:06;;;;;;;2.95;0.98;;;;;;;;;;5009607;28;20506;-76
2022/10/08 15:55:33;;;;;;;5.90;1.20;;;;;;;;;;5004776;28;20026;-77
2022/10/08 15:57:59;;;;;;;15.00;1.65;;;;;;;;;;5006987;28;20080;-76
2022/10/08 16:00:25;;;;;;;7.20;0.90;;;;;;;;;;5005514;28;20053;-77
2022/10/08 16:02:51;;;;;;;8.65;1.33;;;;;;;;;;5007859;28;20030;-76
2022/10/08 16:05:17;;;;;;;4.57;1.00;;;;;;;;;;5005794;28;20109;-76
2022/10/08 16:07:43;;;;;;;9.98;1.30;;;;;;;;;;5010562;28;20369;-76
2022/10/08 16:10:09;;;;;;;5.10;1.17;;;;;;;;;;5009222;28;20025;-77
2022/10/08 16:12:35;;;;;;;14.82;1.42;;;;;;;;;;5010851;28;20030;-77
2022/10/08 16:15:01;;;;;;;7.13;1.52;;;;;;;;;;5008777;28;20022;-79
2022/10/08 16:17:27;;;;;;;10.18;1.27;;;;;;;;;;4999967;28;20023;-82
2022/10/08 16:19:53;;;;;;;10.02;1.45;;;;;;;;;;5004960;28;20037;-78
2022/10/08 16:22:19;;;;;;;11.90;1.45;;;;;;;;;;5010044;28;20030;-78
2022/10/08 16:24:45;;;;;;;10.35;1.50;;;;;;;;;;4996988;28;20080;-77
2022/10/08 16:27:11;;;;;;;4.65;1.15;;;;;;;;;;5006615;28;20749;-77
2022/10/08 16:29:37;;;;;;;10.00;1.95;;;;;;;;;;5013103;28;20439;-77
2022/10/08 16:32:03;;;;;;;7.53;1.55;;;;;;;;;;5004335;28;20026;-77
2022/10/08 16:34:30;;;;;;;12.70;1.50;;;;;;;;;;5007884;28;20026;-77
2022/10/08 16:36:59;;;;;;;9.00;1.45;;;;;;;;;;5001883;28;20026;-77
2022/10/08 16:39:25;;;;;;;13.15;1.60;;;;;;;;;;5011453;28;20504;-77
2022/10/08 16:41:51;;;;;;;7.00;1.10;;;;;;;;;;5000082;28;20026;-77
2022/10/08 16:44:18;;;;;;;10.15;1.40;;;;;;;;;;5012601;28;20118;-77
2022/10/08 16:46:47;;;;;;;9.43;1.17;;;;;;;;;;5001176;28;20029;-77
2022/10/08 16:49:15;;;;;;;6.55;1.30;;;;;;;;;;5013685;28;20057;-77
2022/10/08 16:51:42;;;;;;;9.60;1.83;;;;;;;;;;5030174;28;20034;-77
2022/10/08 16:54:10;;;;;;;8.23;1.27;;;;;;;;;;5031005;28;20030;-77
2022/10/08 16:56:37;;;;;;;12.90;1.95;;;;;;;;;;5031468;28;20029;-77
2022/10/08 16:59:05;;;;;;;9.18;1.23;;;;;;;;;;5031220;28;20041;-77
2022/10/08 17:01:31;;;;;;;10.32;1.40;;;;;;;;;;5028933;28;20037;-78
2022/10/08 17:03:57;;;;;;;8.38;1.15;;;;;;;;;;5031222;28;20123;-77
2022/10/08 17:06:24;;;;;;;13.32;1.30;;;;;;;;;;5031141;28;20025;-77
2022/10/08 17:08:51;;;;;;;9.82;1.38;;;;;;;;;;5031230;28;20148;-77
2022/10/08 17:11:18;;;;;;;5.97;1.30;;;;;;;;;;5031109;28;20049;-77
2022/10/08 17:13:45;;;;;;;10.05;1.30;;;;;;;;;;5031171;28;20017;-77
2022/10/08 17:16:12;;;;;;;11.20;1.27;;;;;;;;;;5030728;28;20072;-77
2022/10/08 17:18:38;;;;;;;5.90;1.00;;;;;;;;;;5030790;28;20045;-77
2022/10/08 17:21:05;;;;;;;8.52;1.15;;;;;;;;;;5015982;28;20823;-77
2022/10/08 17:23:33;;;;;;;8.32;1.27;;;;;;;;;;5011826;28;20310;-77
2022/10/08 17:26:00;;;;;;;8.85;1.60;;;;;;;;;;5013435;28;20022;-76
2022/10/08 17:28:30;;;;;;;8.15;1.42;;;;;;;;;;5011722;28;20091;-77
2022/10/08 17:30:57;;;;;;;9.63;1.65;;;;;;;;;;5013141;28;20421;-77
2022/10/08 17:33:23;;;;;;;8.82;1.20;;;;;;;;;;5006832;28;20014;-77
2022/10/08 17:35:58;;;;;;;8.68;1.40;;;;;;;;;;5006044;28;20029;-77
2022/10/08 17:38:24;;;;;;;10.63;1.27;;;;;;;;;;5025061;28;20515;-77
2022/10/08 17:40:50;;;;;;;7.43;1.30;;;;;;;;;;5010542;28;20472;-76
2022/10/08 17:43:16;;;;;;;6.95;1.42;;;;;;;;;;5010396;28;20026;-76
2022/10/08 17:45:42;;;;;;;8.07;2.33;;;;;;;;;;5010241;28;20044;-77
2022/10/08 17:48:08;;;;;;;10.05;2.95;;;;;;;;;;5012893;28;20044;-77
2022/10/08 17:50:35;;;;;;;18.15;4.25;;;;;;;;;;5008910;28;20027;-76
2022/10/08 17:53:01;;;;;;;18.17;5.10;;;;;;;;;;5011651;28;20026;-77
2022/10/08 17:55:27;;;;;;;18.75;7.88;;;;;;;;;;5009075;28;20081;-77
2022/10/08 17:57:53;;;;;;;21.88;8.00;;;;;;;;;;5005513;28;20034;-77
2022/10/08 18:00:20;;;;;;;17.15;6.70;;;;;;;;;;5011720;28;20037;-76
2022/10/08 18:02:46;;;;;;;13.93;5.15;;;;;;;;;;5012825;28;20037;-76
2022/10/08 18:05:12;;;;;;;16.65;4.05;;;;;;;;;;5012734;28;20089;-76
2022/10/08 18:07:38;;;;;;;15.65;5.10;;;;;;;;;;5012884;28;20064;-78
2022/10/08 18:10:04;;;;;;;11.32;3.85;;;;;;;;;;5012837;28;20034;-77
2022/10/08 18:12:34;;;;;;;11.13;3.15;;;;;;;;;;5007120;28;20025;-77
2022/10/08 18:15:00;;;;;;;14.50;3.05;;;;;;;;;;5011136;28;20033;-77
2022/10/08 18:17:26;;;;;;;14.23;3.13;;;;;;;;;;5012405;28;20026;-77
2022/10/08 18:19:52;;;;;;;13.50;3.53;;;;;;;;;;5005467;28;20030;-77
2022/10/08 18:22:20;;;;;;;12.88;2.47;;;;;;;;;;5002892;28;20477;-77
2022/10/08 18:24:47;;;;;;;13.93;2.90;;;;;;;;;;4992720;28;20049;-77
2022/10/08 18:27:13;;;;;;;11.15;2.35;;;;;;;;;;5012325;28;20105;-77
2022/10/08 18:29:39;;;;;;;8.77;2.42;;;;;;;;;;5011603;28;20038;-77
2022/10/08 18:32:05;;;;;;;16.25;2.92;;;;;;;;;;5036771;28;20172;-77
2022/10/08 18:34:31;;;;;;;11.52;4.07;;;;;;;;;;5008546;28;20041;-77
2022/10/08 18:36:57;;;;;;;9.85;3.83;;;;;;;;;;5004630;28;20034;-77
2022/10/08 18:39:23;;;;;;;20.67;4.50;;;;;;;;;;5011144;28;20030;-78
2022/10/08 18:41:50;;;;;;;14.50;7.68;;;;;;;;;;5012091;28;20022;-77
2022/10/08 18:44:17;;;;;;;16.33;7.90;;;;;;;;;;5004396;28;20026;-77
2022/10/08 18:46:43;;;;;;;15.00;6.65;;;;;;;;;;5005822;28;20033;-77
2022/10/08 18:49:12;;;;;;;19.27;6.18;;;;;;;;;;5000932;28;20034;-77
2022/10/08 18:51:38;;;;;;;14.25;5.07;;;;;;;;;;5011763;28;20018;-77
2022/10/08 18:54:05;;;;;;;12.20;4.25;;;;;;;;;;5011220;28;20062;-77
2022/10/08 18:56:34;;;;;;;14.30;3.67;;;;;;;;;;5002915;28;20022;-77
2022/10/08 18:59:01;;;;;;;8.35;3.50;;;;;;;;;;5007183;28;20032;-77
2022/10/08 19:01:38;;;;;;;11.05;3.28;;;;;;;;;;4996299;28;20029;-77
2022/10/08 19:04:06;;;;;;;9.48;3.00;;;;;;;;;;5001306;28;20026;-77
2022/10/08 19:06:33;;;;;;;9.10;3.25;;;;;;;;;;5014192;28;20392;-77
2022/10/08 19:09:02;;;;;;;16.80;3.25;;;;;;;;;;4998883;28;20027;-77
2022/10/08 19:11:32;;;;;;;17.50;4.03;;;;;;;;;;5022868;28;20033;-77
2022/10/08 19:13:58;;;;;;;14.57;3.53;;;;;;;;;;5015967;28;20024;-77
2022/10/08 19:16:24;;;;;;;14.75;4.25;;;;;;;;;;5007469;28;20123;-77
2022/10/08 19:18:55;;;;;;;15.90;4.68;;;;;;;;;;5015516;28;20109;-77
2022/10/08 19:21:21;;;;;;;12.98;4.60;;;;;;;;;;5013652;28;20029;-77
2022/10/08 19:23:47;;;;;;;14.50;5.05;;;;;;;;;;5005130;28;20031;-77
2022/10/08 19:26:14;;;;;;;15.43;5.80;;;;;;;;;;5013581;28;20057;-77
2022/10/08 19:28:44;;;;;;;18.85;6.10;;;;;;;;;;5015137;28;20053;-77
2022/10/08 19:31:14;;;;;;;16.13;5.72;;;;;;;;;;5010153;28;20022;-77
2022/10/08 19:33:40;;;;;;;13.55;6.07;;;;;;;;;;5021937;28;20029;-77
2022/10/08 19:36:06;;;;;;;27.60;7.60;;;;;;;;;;5011417;28;20061;-77
2022/10/08 19:38:33;;;;;;;20.38;6.93;;;;;;;;;;5005534;28;20030;-77
2022/10/08 19:41:00;;;;;;;20.08;6.72;;;;;;;;;;4999241;28;20034;-77
2022/10/08 19:43:26;;;;;;;15.35;6.50;;;;;;;;;;5005145;28;20076;-77
2022/10/08 19:45:52;;;;;;;15.45;6.13;;;;;;;;;;5014970;28;20083;-77
2022/10/08 19:48:18;;;;;;;15.88;6.07;;;;;;;;;;5014296;28;20034;-77
2022/10/08 19:50:44;;;;;;;24.48;7.85;;;;;;;;;;5002866;28;20029;-77
2022/10/08 19:53:10;;;;;;;17.15;6.97;;;;;;;;;;4998791;28;20019;-77
2022/10/08 19:55:37;;;;;;;21.95;7.18;;;;;;;;;;5011528;28;20018;-77
2022/10/08 19:58:03;;;;;;;18.27;6.53;;;;;;;;;;5010735;28;20145;-77
2022/10/08 20:00:29;;;;;;;16.17;5.60;;;;;;;;;;5005391;28;20456;-76
2022/10/08 20:02:55;;;;;;;15.73;6.53;;;;;;;;;;5006832;28;20026;-77
2022/10/08 20:05:21;;;;;;;18.08;6.65;;;;;;;;;;5037324;28;20022;-77
2022/10/08 20:07:47;;;;;;;19.70;6.25;;;;;;;;;;5008850;28;20080;-77
2022/10/08 20:10:15;;;;;;;21.35;6.53;;;;;;;;;;5009521;28;20034;-77
2022/10/08 20:12:42;;;;;;;19.23;5.97;;;;;;;;;;5008742;28;20118;-76
2022/10/08 20:15:08;;;;;;;17.55;6.00;;;;;;;;;;5009034;28;20329;-76
2022/10/08 20:17:35;;;;;;;15.55;7.50;;;;;;;;;;5008756;28;20026;-76
2022/10/08 20:20:01;;;;;;;20.00;6.97;;;;;;;;;;5000126;28;20030;-76
2022/10/08 20:22:27;;;;;;;23.33;6.68;;;;;;;;;;5011242;28;20033;-76
2022/10/08 20:24:53;;;;;;;16.45;6.45;;;;;;;;;;5002410;28;20479;-76
2022/10/08 20:27:19;;;;;;;19.25;6.05;;;;;;;;;;5000358;28;20381;-76
2022/10/08 20:29:45;;;;;;;13.75;5.60;;;;;;;;;;5002118;28;20477;-77
2022/10/08 20:32:11;;;;;;;12.52;5.05;;;;;;;;;;4999966;28;20499;-76
2022/10/08 20:34:37;;;;;;;14.55;5.22;;;;;;;;;;5003979;28;20389;-76
2022/10/08 20:37:03;;;;;;;11.63;5.53;;;;;;;;;;5003677;28;20435;-76
2022/10/08 20:39:30;;;;;;;19.70;5.30;;;;;;;;;;5011327;28;20541;-77
2022/10/08 20:41:57;;;;;;;14.52;5.43;;;;;;;;;;5009898;28;20030;-77
2022/10/08 20:44:23;;;;;;;19.73;6.25;;;;;;;;;;4994937;28;20057;-76
2022/10/08 20:46:49;;;;;;;19.00;5.95;;;;;;;;;;4994333;28;20038;-77
2022/10/08 20:49:15;;;;;;;14.52;5.55;;;;;;;;;;4994352;28;20030;-77
2022/10/08 20:51:42;;;;;;;19.08;6.18;;;;;;;;;;5009135;28;20022;-77
2022/10/08 20:54:09;;;;;;;17.05;5.53;;;;;;;;;;4994611;28;20755;-76
2022/10/08 20:56:36;;;;;;;17.58;6.90;;;;;;;;;;4994419;28;20030;-77
2022/10/08 20:59:02;;;;;;;18.17;6.07;;;;;;;;;;4994225;28;20522;-77
2022/10/08 21:01:29;;;;;;;12.45;6.18;;;;;;;;;;5009412;28;20758;-77
2022/10/08 21:03:56;;;;;;;20.42;6.20;;;;;;;;;;4994411;28;20018;-77
2022/10/08 21:06:24;;;;;;;16.60;6.55;;;;;;;;;;4994311;28;20380;-77
2022/10/08 21:08:51;;;;;;;11.85;5.30;;;;;;;;;;4994139;28;20031;-77
2022/10/08 21:11:18;;;;;;;13.48;6.07;;;;;;;;;;4994236;28;20026;-77
2022/10/08 21:13:44;;;;;;;21.75;6.07;;;;;;;;;;4993321;28;20469;-77
2022/10/08 21:16:11;;;;;;;15.18;6.13;;;;;;;;;;4993999;28;20085;-77
2022/10/08 21:18:38;;;;;;;13.20;5.45;;;;;;;;;;4993829;28;20065;-77
2022/10/08 21:21:05;;;;;;;11.50;5.63;;;;;;;;;;4993657;28;20038;-76
2022/10/08 21:23:31;;;;;;;13.35;6.25;;;;;;;;;;4994081;28;20027;-77
2022/10/08 21:26:11;;;;;;;16.33;5.65;;;;;;;;;;4993940;28;20033;-77
2022/10/08 21:28:38;;;;;;;19.27;5.70;;;;;;;;;;4992218;28;20073;-77
2022/10/08 21:31:04;;;;;;;11.48;5.38;;;;;;;;;;4994013;28;20457;-77
2022/10/08 21:33:30;;;;;;;16.70;6.55;;;;;;;;;;5001962;28;20030;-77
2022/10/08 21:35:57;;;;;;;19.67;6.35;;;;;;;;;;5012207;28;20360;-77
2022/10/08 21:38:23;;;;;;;21.83;6.63;;;;;;;;;;5013272;28;20057;-77
2022/10/08 21:40:59;;;;;;;16.98;5.78;;;;;;;;;;5012923;28;20030;-77
2022/10/08 21:43:26;;;;;;;13.02;5.53;;;;;;;;;;5009147;28;20030;-77
2022/10/08 21:45:53;;;;;;;13.50;6.00;;;;;;;;;;4993873;28;20038;-77
2022/10/08 21:48:19;;;;;;;14.35;5.30;;;;;;;;;;4993515;28;20034;-77
2022/10/08 21:50:45;;;;;;;11.20;5.95;;;;;;;;;;4993648;28;20364;-77
2022/10/08 21:53:11;;;;;;;12.98;5.20;;;;;;;;;;4993522;28;20473;-77
2022/10/08 21:55:37;;;;;;;12.77;5.82;;;;;;;;;;5002061;28;20053;-77
2022/10/08 21:58:03;;;;;;;19.05;7.47;;;;;;;;;;5011813;28;20045;-77
2022/10/08 22:00:30;;;;;;;17.90;5.30;;;;;;;;;;5012967;28;20030;-77
2022/10/08 22:02:56;;;;;;;15.02;5.80;;;;;;;;;;5013005;28;20104;-77
2022/10/08 22:05:23;;;;;;;15.38;5.20;;;;;;;;;;4998378;28;20103;-77
2022/10/08 22:07:49;;;;;;;12.98;5.90;;;;;;;;;;4993212;28;20457;-77
2022/10/08 22:10:15;;;;;;;9.80;5.70;;;;;;;;;;4993297;28;20493;-77
2022/10/08 22:12:41;;;;;;;11.52;5.95;;;;;;;;;;4993539;28;20022;-77
2022/10/08 22:15:07;;;;;;;14.90;5.95;;;;;;;;;;4993166;28;20519;-77
2022/10/08 22:17:33;;;;;;;13.68;6.53;;;;;;;;;;4992996;28;20030;-77
2022/10/08 22:19:59;;;;;;;16.75;6.80;;;;;;;;;;4993009;28;20034;-77
2022/10/08 22:22:25;;;;;;;17.58;6.32;;;;;;;;;;4997482;28;20034;-77
2022/10/08 22:24:51;;;;;;;19.50;6.90;;;;;;;;;;5012721;28;20026;-77
2022/10/08 22:27:17;;;;;;;15.57;6.55;;;;;;;;;;5012575;28;20030;-77
2022/10/08 22:29:43;;;;;;;18.63;6.95;;;;;;;;;;5011894;28;20053;-77
2022/10/08 22:32:09;;;;;;;11.05;5.90;;;;;;;;;;5012624;28;20510;-77
2022/10/08 22:34:35;;;;;;;19.40;5.70;;;;;;;;;;4995761;28;20076;-77
2022/10/08 22:37:01;;;;;;;13.68;6.75;;;;;;;;;;4992709;28;20077;-77
2022/10/08 22:39:27;;;;;;;18.25;6.95;;;;;;;;;;4992759;28;20034;-77
2022/10/08 22:41:53;;;;;;;16.83;6.30;;;;;;;;;;4994416;28;20453;-77
2022/10/08 22:44:20;;;;;;;13.35;5.80;;;;;;;;;;4991315;28;20041;-77
2022/10/08 22:46:46;;;;;;;18.25;6.43;;;;;;;;;;4992537;28;20034;-77
2022/10/08 22:49:12;;;;;;;15.77;6.20;;;;;;;;;;4992400;28;20042;-77
2022/10/08 22:51:38;;;;;;;25.15;7.22;;;;;;;;;;4992466;28;20377;-77
2022/10/08 22:54:05;;;;;;;14.13;6.95;;;;;;;;;;4992631;28;20373;-77
2022/10/08 22:56:31;;;;;;;14.75;6.80;;;;;;;;;;4992785;28;20022;-77
2022/10/08 22:58:58;;;;;;;20.73;6.07;;;;;;;;;;4992549;28;20722;-77
2022/10/08 23:01:24;;;;;;;13.77;5.55;;;;;;;;;;4992881;28;20408;-77
2022/10/08 23:03:50;;;;;;;11.90;5.70;;;;;;;;;;4994374;28;20120;-77
2022/10/08 23:06:18;;;;;;;14.32;5.70;;;;;;;;;;5012346;28;20037;-77
2022/10/08 23:08:45;;;;;;;15.88;5.97;;;;;;;;;;5010680;28;20033;-77
2022/10/08 23:11:11;;;;;;;13.00;5.82;;;;;;;;;;5012189;28;20041;-77
2022/10/08 23:13:37;;;;;;;18.13;5.82;;;;;;;;;;5011904;28;20022;-77
2022/10/08 23:16:05;;;;;;;14.32;5.55;;;;;;;;;;5011723;28;20014;-77
2022/10/08 23:18:32;;;;;;;14.88;6.32;;;;;;;;;;5012106;28;20133;-77
2022/10/08 23:21:02;;;;;;;12.65;5.68;;;;;;;;;;5011897;28;20026;-77
2022/10/08 23:23:28;;;;;;;11.95;5.18;;;;;;;;;;5010761;28;20045;-77
2022/10/08 23:25:56;;;;;;;17.50;5.47;;;;;;;;;;5011834;28;20435;-77
2022/10/08 23:28:22;;;;;;;15.25;5.60;;;;;;;;;;5010074;28;20084;-77
2022/10/08 23:30:48;;;;;;;11.55;5.60;;;;;;;;;;5011772;28;20021;-77
2022/10/08 23:33:14;;;;;;;16.17;6.05;;;;;;;;;;5011249;28;20109;-77
2022/10/08 23:35:40;;;;;;;13.57;5.43;;;;;;;;;;5012546;28;20030;-77
2022/10/08 23:38:06;;;;;;;18.85;6.00;;;;;;;;;;5015580;28;20025;-77
2022/10/08 23:40:32;;;;;;;17.50;6.03;;;;;;;;;;5015558;28;20030;-77
2022/10/08 23:42:58;;;;;;;11.75;6.20;;;;;;;;;;5015299;28;20033;-77
2022/10/08 23:45:24;;;;;;;11.00;5.43;;;;;;;;;;5015563;28;20025;-77
2022/10/08 23:47:50;;;;;;;11.43;5.97;;;;;;;;;;5014143;28;20037;-77
2022/10/08 23:50:16;;;;;;;15.13;5.85;;;;;;;;;;5014649;28;20026;-77
2022/10/08 23:52:42;;;;;;;15.27;6.18;;;;;;;;;;5014972;28;20338;-77
2022/10/08 23:55:08;;;;;;;17.95;5.88;;;;;;;;;;5015180;28;20468;-77
2022/10/08 23:57:34;;;;;;;16.48;6.22;;;;;;;;;;5015079;28;20033;-77
